createdAt,value
2019-02-26T00:00:30.895Z,96.20
2019-02-26T00:03:04.177Z,96.10
2019-02-26T00:05:33.337Z,96.00
2019-02-26T00:08:03.772Z,96.00
2019-02-26T00:10:36.546Z,96.00
2019-02-26T00:13:06.290Z,95.90
2019-02-26T00:15:53.094Z,95.80
2019-02-26T00:18:26.748Z,95.80
2019-02-26T00:20:59.015Z,95.80
2019-02-26T00:23:30.050Z,95.80
2019-02-26T00:26:00.538Z,95.80
2019-02-26T00:28:30.963Z,95.80
2019-02-26T00:31:02.115Z,96.00
2019-02-26T00:33:33.490Z,95.80
2019-02-26T00:36:04.495Z,95.80
2019-02-26T00:38:37.616Z,95.80
2019-02-26T00:41:08.166Z,95.80
2019-02-26T00:43:38.613Z,95.70
2019-02-26T00:46:10.355Z,95.80
2019-02-26T00:48:43.034Z,95.80
2019-02-26T00:51:12.834Z,95.90
2019-02-26T00:53:43.325Z,95.90
2019-02-26T00:56:13.739Z,95.90
2019-02-26T00:58:46.175Z,96.10
2019-02-26T01:01:17.746Z,96.00
2019-02-26T01:03:49.381Z,96.00
2019-02-26T01:06:20.263Z,96.10
2019-02-26T01:08:50.689Z,96.40
2019-02-26T01:11:23.894Z,96.40
2019-02-26T01:13:55.571Z,96.30
2019-02-26T01:16:26.951Z,96.30
2019-02-26T01:18:57.368Z,96.30
2019-02-26T01:21:29.097Z,96.50
2019-02-26T01:24:01.767Z,96.70
2019-02-26T01:26:31.875Z,96.80
2019-02-26T01:29:02.370Z,97.00
2019-02-26T01:31:33.945Z,97.10
2019-02-26T01:34:06.119Z,97.30
2019-02-26T01:36:38.197Z,97.50
2019-02-26T01:39:11.265Z,97.50
2019-02-26T01:41:43.373Z,97.60
2019-02-26T01:44:12.741Z,97.70
2019-02-26T01:46:43.136Z,97.70
2019-02-26T01:49:13.578Z,97.90
2019-02-26T01:51:46.936Z,98.20
2019-02-26T01:54:16.800Z,98.20
2019-02-26T01:56:47.366Z,98.10
2019-02-26T01:59:18.999Z,98.20
2019-02-26T02:01:51.406Z,98.10
2019-02-26T02:04:21.605Z,98.20
2019-02-26T02:06:54.319Z,98.00
2019-02-26T02:09:25.075Z,97.90
2019-02-26T02:11:57.394Z,98.00
2019-02-26T02:14:27.657Z,98.10
2019-02-26T02:16:58.075Z,98.00
2019-02-26T02:19:30.086Z,97.90
2019-02-26T02:22:00.618Z,97.90
2019-02-26T02:24:31.014Z,97.90
2019-02-26T02:27:01.470Z,97.80
2019-02-26T02:29:31.862Z,97.70
2019-02-26T02:32:04.888Z,97.60
2019-02-26T02:34:36.593Z,97.50
2019-02-26T02:37:06.416Z,97.50
2019-02-26T02:39:36.935Z,97.30
2019-02-26T02:42:08.374Z,97.30
2019-02-26T02:44:41.311Z,97.30
2019-02-26T02:47:11.987Z,97.30
2019-02-26T02:49:44.249Z,97.30
2019-02-26T02:52:14.385Z,97.40
2019-02-26T02:54:47.043Z,97.70
2019-02-26T02:57:16.854Z,97.70
2019-02-26T02:59:47.222Z,97.80
2019-02-26T03:02:19.966Z,98.00
2019-02-26T03:04:49.669Z,97.90
2019-02-26T03:07:20.855Z,97.90
2019-02-26T03:09:52.163Z,97.90
2019-02-26T03:12:22.682Z,97.80
2019-02-26T03:14:53.051Z,97.90
2019-02-26T03:17:23.490Z,97.90
2019-02-26T03:19:56.025Z,97.80
2019-02-26T03:22:25.935Z,97.70
2019-02-26T03:24:57.468Z,97.80
2019-02-26T03:27:31.331Z,97.80
2019-02-26T03:30:02.010Z,97.80
2019-02-26T03:32:36.062Z,97.90
2019-02-26T03:35:07.421Z,97.90
2019-02-26T03:37:36.721Z,97.90
2019-02-26T03:40:09.928Z,98.00
2019-02-26T03:42:43.455Z,97.90
2019-02-26T03:45:23.592Z,98.00
2019-02-26T03:47:50.430Z,98.00
2019-02-26T03:50:20.856Z,98.10
2019-02-26T03:52:51.247Z,98.10
2019-02-26T03:55:21.676Z,98.30
2019-02-26T03:57:54.432Z,98.50
2019-02-26T04:00:27.051Z,98.60
2019-02-26T04:02:57.449Z,98.80
2019-02-26T04:05:27.857Z,99.00
2019-02-26T04:07:59.513Z,99.20
2019-02-26T04:10:30.244Z,99.30
2019-02-26T04:13:00.740Z,99.30
2019-02-26T04:15:33.513Z,99.30
2019-02-26T04:18:03.228Z,99.30
2019-02-26T04:20:33.652Z,99.20
2019-02-26T04:23:04.120Z,99.10
2019-02-26T04:25:59.877Z,99.00
2019-02-26T04:28:35.772Z,98.90
2019-02-26T04:31:13.845Z,98.90
2019-02-26T04:33:58.914Z,99.00
2019-02-26T04:36:48.737Z,99.20
2019-02-26T04:39:34.457Z,98.80
2019-02-26T04:42:17.596Z,98.80
2019-02-26T04:45:08.929Z,98.80
2019-02-26T04:47:59.974Z,98.80
2019-02-26T04:50:33.093Z,98.80
2019-02-26T04:53:04.885Z,98.70
2019-02-26T04:55:36.049Z,98.70
2019-02-26T04:58:08.608Z,98.70
2019-02-26T05:00:38.819Z,98.60
2019-02-26T05:03:11.857Z,98.50
2019-02-26T05:05:41.265Z,98.40
2019-02-26T05:08:12.838Z,98.20
2019-02-26T05:10:43.893Z,98.20
2019-02-26T05:13:14.439Z,98.20
2019-02-26T05:15:44.944Z,98.10
2019-02-26T05:18:17.632Z,98.00
2019-02-26T05:20:48.435Z,98.00
2019-02-26T05:23:20.670Z,98.10
2019-02-26T05:25:51.988Z,98.10
2019-02-26T05:28:22.430Z,98.00
2019-02-26T05:30:52.828Z,98.00
2019-02-26T05:33:25.246Z,97.90
2019-02-26T05:35:55.272Z,97.80
2019-02-26T05:38:26.569Z,97.80
2019-02-26T05:40:57.802Z,97.70
2019-02-26T05:43:30.638Z,97.60
2019-02-26T05:46:03.850Z,97.60
2019-02-26T05:48:42.915Z,97.60
2019-02-26T05:51:15.346Z,97.60
2019-02-26T05:53:51.715Z,97.30
2019-02-26T05:56:23.717Z,97.20
2019-02-26T05:58:54.190Z,97.10
2019-02-26T06:01:27.793Z,96.60
2019-02-26T06:03:56.874Z,96.20
2019-02-26T06:06:27.357Z,95.60
2019-02-26T06:09:05.713Z,95.50
2019-02-26T06:11:41.744Z,95.30
2019-02-26T06:14:12.607Z,95.40
2019-02-26T06:16:46.191Z,95.60
2019-02-26T06:19:18.295Z,95.80
2019-02-26T06:21:49.731Z,95.70
2019-02-26T06:24:27.068Z,95.70
2019-02-26T06:26:57.767Z,95.60
2019-02-26T06:29:32.062Z,95.60
2019-02-26T06:32:12.027Z,95.60
2019-02-26T06:34:42.478Z,95.70
2019-02-26T06:37:23.737Z,95.80
2019-02-26T06:39:57.044Z,95.80
2019-02-26T06:42:28.295Z,96.20
2019-02-26T06:45:04.053Z,95.80
2019-02-26T06:47:37.315Z,95.60
2019-02-26T06:50:11.086Z,95.30
2019-02-26T06:52:44.720Z,94.80
2019-02-26T06:55:16.379Z,95.30
2019-02-26T06:57:52.710Z,95.20
2019-02-26T07:00:26.924Z,95.30
2019-02-26T07:03:00.104Z,95.40
2019-02-26T07:05:32.630Z,95.20
2019-02-26T07:08:06.634Z,95.00
2019-02-26T07:10:38.414Z,95.00
2019-02-26T07:13:10.128Z,94.90
2019-02-26T07:15:42.954Z,94.70
2019-02-26T07:18:17.116Z,95.00
2019-02-26T07:20:49.884Z,94.30
2019-02-26T07:23:20.913Z,94.00
2019-02-26T07:25:55.657Z,94.10
2019-02-26T07:28:29.168Z,94.30
2019-02-26T07:31:00.472Z,94.00
2019-02-26T07:33:34.643Z,94.00
2019-02-26T07:36:04.272Z,94.30
2019-02-26T07:38:41.358Z,94.50
2019-02-26T07:41:07.112Z,94.50
2019-02-26T07:43:41.067Z,94.80
2019-02-26T07:46:12.131Z,94.60
2019-02-26T07:48:46.124Z,94.80
2019-02-26T07:51:17.677Z,95.40
2019-02-26T07:53:51.019Z,95.20
2019-02-26T07:56:21.140Z,95.00
2019-02-26T07:58:52.245Z,95.10
2019-02-26T08:01:22.685Z,95.20
2019-02-26T08:03:53.360Z,95.20
2019-02-26T08:06:23.772Z,95.10
2019-02-26T08:08:54.245Z,95.20
2019-02-26T08:11:24.626Z,95.00
2019-02-26T08:13:56.740Z,94.60
2019-02-26T08:16:30.105Z,94.10
2019-02-26T08:19:01.362Z,94.20
2019-02-26T08:21:31.935Z,93.70
2019-02-26T08:24:02.308Z,93.50
2019-02-26T08:26:32.783Z,93.20
2019-02-26T08:29:05.118Z,93.50
2019-02-26T08:31:35.296Z,93.90
2019-02-26T08:34:05.709Z,93.00
2019-02-26T08:36:36.562Z,92.70
2019-02-26T08:39:09.467Z,92.20
2019-02-26T08:41:39.947Z,92.30
2019-02-26T08:44:10.348Z,92.50
2019-02-26T08:46:42.733Z,92.20
2019-02-26T08:49:13.775Z,92.20
2019-02-26T08:51:44.978Z,92.30
2019-02-26T08:54:20.761Z,92.30
2019-02-26T08:56:47.507Z,92.40
2019-02-26T08:59:20.029Z,92.70
2019-02-26T09:01:49.964Z,92.20
2019-02-26T09:04:21.411Z,92.00
2019-02-26T09:06:54.550Z,92.50
2019-02-26T09:09:25.919Z,93.00
2019-02-26T09:11:58.885Z,92.70
2019-02-26T09:14:32.178Z,92.60
2019-02-26T09:17:02.141Z,92.80
2019-02-26T09:19:35.502Z,93.10
2019-02-26T09:22:09.699Z,92.80
2019-02-26T09:24:39.114Z,92.60
2019-02-26T09:27:09.590Z,92.30
2019-02-26T09:29:43.924Z,92.70
2019-02-26T09:32:14.405Z,91.90
2019-02-26T09:34:44.685Z,91.80
2019-02-26T09:37:15.140Z,91.70
2019-02-26T09:39:45.613Z,91.20
2019-02-26T09:42:16.288Z,91.50
2019-02-26T09:44:48.237Z,91.80
2019-02-26T09:47:23.516Z,92.10
2019-02-26T09:49:54.356Z,92.00
2019-02-26T09:52:27.686Z,91.70
2019-02-26T09:55:00.069Z,92.20
2019-02-26T09:57:33.109Z,92.20
2019-02-26T10:00:05.365Z,92.30
2019-02-26T10:02:35.792Z,92.20
2019-02-26T10:05:08.629Z,92.10
2019-02-26T10:07:39.872Z,92.30
2019-02-26T10:10:15.988Z,92.40
2019-02-26T10:12:46.437Z,92.50
2019-02-26T10:15:17.822Z,91.90
2019-02-26T10:17:48.349Z,92.40
2019-02-26T10:20:24.777Z,92.60
2019-02-26T10:22:57.789Z,92.70
2019-02-26T10:25:29.340Z,92.80
2019-02-26T10:28:06.089Z,92.90
2019-02-26T10:30:36.202Z,92.60
2019-02-26T10:33:07.755Z,93.10
2019-02-26T10:35:39.651Z,93.80
2019-02-26T10:38:11.551Z,93.60
2019-02-26T10:40:53.519Z,94.00
2019-02-26T10:43:16.804Z,94.60
2019-02-26T10:45:48.195Z,94.90
2019-02-26T10:48:22.067Z,94.40
2019-02-26T10:50:51.953Z,94.90
2019-02-26T10:53:22.779Z,94.70
2019-02-26T10:55:53.309Z,94.30
2019-02-26T10:58:23.745Z,93.90
2019-02-26T11:00:55.716Z,94.10
2019-02-26T11:03:26.298Z,94.40
2019-02-26T11:05:56.768Z,95.10
2019-02-26T11:08:29.642Z,95.70
2019-02-26T11:10:59.399Z,95.70
2019-02-26T11:13:29.892Z,96.30
2019-02-26T11:16:03.074Z,96.40
2019-02-26T11:18:34.635Z,96.80
2019-02-26T11:21:04.619Z,97.00
2019-02-26T11:23:38.642Z,97.40
2019-02-26T11:26:10.557Z,97.20
2019-02-26T11:28:42.863Z,98.10
2019-02-26T11:31:14.116Z,99.20
2019-02-26T11:33:44.934Z,99.70
2019-02-26T11:36:15.767Z,99.80
2019-02-26T11:38:47.051Z,99.60
2019-02-26T11:41:17.545Z,98.80
2019-02-26T11:43:47.923Z,98.80
2019-02-26T11:46:20.104Z,98.70
2019-02-26T11:48:52.447Z,98.00
2019-02-26T11:51:22.567Z,98.20
2019-02-26T11:53:53.013Z,97.90
2019-02-26T11:56:25.787Z,98.60
2019-02-26T11:58:57.154Z,99.50
2019-02-26T12:01:29.461Z,99.90
2019-02-26T12:04:03.529Z,99.90
2019-02-26T12:06:31.632Z,99.90
2019-02-26T12:09:10.904Z,99.90
2019-02-26T12:11:40.592Z,99.90
2019-02-26T12:14:13.703Z,99.90
2019-02-26T12:19:45.712Z,99.90
2019-02-26T12:22:17.927Z,99.90
2019-02-26T12:24:53.022Z,99.90
2019-02-26T12:27:23.728Z,99.90
2019-02-26T12:29:54.620Z,99.90
2019-02-26T12:32:27.471Z,99.90
2019-02-26T12:35:03.431Z,99.90
2019-02-26T12:37:34.411Z,99.90
2019-02-26T12:40:10.330Z,99.90
2019-02-26T12:42:41.760Z,99.90
2019-02-26T12:45:19.748Z,99.90
2019-02-26T12:47:53.083Z,99.90
2019-02-26T12:50:26.613Z,99.90
2019-02-26T12:52:57.138Z,99.90
2019-02-26T12:55:31.670Z,99.90
2019-02-26T12:58:00.436Z,99.90
2019-02-26T13:00:30.868Z,99.90
2019-02-26T13:03:01.375Z,99.90
2019-02-26T13:05:31.903Z,99.90
2019-02-26T13:08:03.291Z,99.90
2019-02-26T13:10:38.487Z,99.90
2019-02-26T13:13:09.886Z,99.90
2019-02-26T13:15:40.338Z,99.90
2019-02-26T13:18:13.525Z,99.90
2019-02-26T13:20:52.038Z,99.90
2019-02-26T13:23:23.011Z,99.90
2019-02-26T13:25:53.496Z,99.90
2019-02-26T13:28:29.585Z,99.90
2019-02-26T13:31:01.356Z,99.90
2019-02-26T13:33:37.488Z,99.90
2019-02-26T13:36:04.801Z,99.90
2019-02-26T13:41:27.224Z,99.90
2019-02-26T13:43:40.778Z,99.90
2019-02-26T13:46:13.641Z,99.90
2019-02-26T13:48:44.006Z,99.90
2019-02-26T13:51:14.443Z,99.90
2019-02-26T13:53:46.555Z,99.90
2019-02-26T13:56:17.030Z,99.90
2019-02-26T13:58:47.428Z,99.90
2019-02-26T14:01:17.846Z,99.90
2019-02-26T14:03:48.256Z,99.90
2019-02-26T14:06:18.679Z,99.90
2019-02-26T14:08:49.166Z,99.90
2019-02-26T14:11:19.538Z,99.90
2019-02-26T14:13:50.372Z,99.90
2019-02-26T14:16:20.826Z,99.90
2019-02-26T14:18:51.273Z,99.90
2019-02-26T14:21:21.874Z,99.90
2019-02-26T14:23:52.342Z,99.90
2019-02-26T14:26:26.337Z,99.90
2019-02-26T14:28:56.829Z,99.90
2019-02-26T14:31:27.245Z,99.90
2019-02-26T14:33:57.845Z,99.90
2019-02-26T14:36:28.433Z,99.90
2019-02-26T14:39:00.681Z,99.90
2019-02-26T14:41:31.217Z,99.90
2019-02-26T14:44:01.617Z,99.90
2019-02-26T14:46:32.081Z,99.90
2019-02-26T14:49:04.287Z,99.90
2019-02-26T14:51:35.034Z,99.90
2019-02-26T14:54:06.518Z,99.90
2019-02-26T14:56:36.987Z,99.90
2019-02-26T14:59:09.392Z,99.90
2019-02-26T15:01:39.760Z,99.90
2019-02-26T15:04:10.150Z,99.90
2019-02-26T15:06:40.658Z,99.90
2019-02-26T15:09:11.030Z,99.90
2019-02-26T15:11:41.636Z,99.90
2019-02-26T15:14:12.081Z,99.90
2019-02-26T15:16:42.675Z,99.90
2019-02-26T15:19:13.091Z,99.90
2019-02-26T15:21:49.344Z,99.90
2019-02-26T15:24:19.788Z,99.90
2019-02-26T15:26:50.280Z,99.90
2019-02-26T15:29:20.740Z,99.90
2019-02-26T15:31:51.185Z,99.90
2019-02-26T15:34:21.932Z,99.90
2019-02-26T15:36:52.456Z,99.90
2019-02-26T15:39:23.304Z,99.90
2019-02-26T15:41:53.700Z,99.90
2019-02-26T15:44:26.127Z,99.90
2019-02-26T15:46:56.326Z,99.90
2019-02-26T15:49:26.798Z,99.90
2019-02-26T15:51:57.281Z,99.90
2019-02-26T15:54:27.896Z,99.90
2019-02-26T15:57:00.490Z,99.90
2019-02-26T15:59:30.333Z,99.90
2019-02-26T16:02:00.746Z,99.90
2019-02-26T16:04:31.153Z,99.90
2019-02-26T16:07:01.817Z,99.90
2019-02-26T16:09:32.310Z,99.90
2019-02-26T16:12:02.822Z,99.90
2019-02-26T16:14:33.765Z,99.90
2019-02-26T16:17:04.235Z,99.90
2019-02-26T16:19:36.253Z,99.90
2019-02-26T16:22:06.805Z,99.90
2019-02-26T16:24:37.973Z,99.90
2019-02-26T16:27:08.869Z,99.90
2019-02-26T16:29:39.339Z,99.90
2019-02-26T16:32:40.938Z,99.90
2019-02-26T16:35:24.960Z,99.90
2019-02-26T16:37:54.936Z,99.90
2019-02-26T16:40:25.443Z,99.90
2019-02-26T16:42:55.824Z,99.90
2019-02-26T16:45:34.434Z,99.90
2019-02-26T16:48:05.396Z,99.90
2019-02-26T16:50:45.231Z,99.90
2019-02-26T16:53:17.226Z,99.90
2019-02-26T16:55:50.924Z,99.90
2019-02-26T16:58:29.768Z,99.90
2019-02-26T17:01:05.954Z,99.90
2019-02-26T17:03:46.679Z,99.90
2019-02-26T17:06:22.488Z,99.90
2019-02-26T17:09:08.764Z,99.90
2019-02-26T17:11:39.619Z,99.90
2019-02-26T17:14:10.394Z,99.90
2019-02-26T17:16:42.994Z,99.90
2019-02-26T17:19:15.470Z,99.90
2019-02-26T17:21:46.918Z,99.90
2019-02-26T17:24:39.180Z,99.90
2019-02-26T17:27:10.377Z,99.90
2019-02-26T17:29:41.301Z,99.90
2019-02-26T17:32:13.178Z,99.90
2019-02-26T17:34:48.056Z,99.90
2019-02-26T17:37:21.495Z,99.90
2019-02-26T17:39:53.342Z,99.90
2019-02-26T17:42:24.118Z,99.90
2019-02-26T17:44:54.699Z,99.90
2019-02-26T17:47:25.471Z,99.90
2019-02-26T17:49:57.505Z,99.90
2019-02-26T17:52:29.399Z,99.90
2019-02-26T17:55:09.453Z,99.90
2019-02-26T17:57:45.979Z,99.90
2019-02-26T18:00:23.589Z,99.90
2019-02-26T18:02:54.085Z,99.90
2019-02-26T18:05:25.556Z,99.90
2019-02-26T18:07:56.193Z,99.90
2019-02-26T18:10:27.486Z,99.90
2019-02-26T18:12:58.046Z,99.90
2019-02-26T18:15:28.499Z,99.90
2019-02-26T18:17:58.997Z,99.90
2019-02-26T18:20:32.205Z,99.90
2019-02-26T18:23:04.799Z,99.90
2019-02-26T18:25:35.496Z,99.90
2019-02-26T18:28:09.993Z,99.90
2019-02-26T18:30:40.594Z,99.90
2019-02-26T18:33:21.815Z,99.90
2019-02-26T18:35:49.443Z,99.90
2019-02-26T18:38:22.189Z,99.90
2019-02-26T18:40:52.744Z,99.90
2019-02-26T18:43:23.238Z,99.90
2019-02-26T18:45:53.766Z,99.90
2019-02-26T18:48:24.255Z,99.90
2019-02-26T18:50:54.854Z,99.90
2019-02-26T18:53:25.366Z,99.90
2019-02-26T18:55:55.793Z,99.90
2019-02-26T18:58:27.780Z,99.90
2019-02-26T19:00:58.760Z,99.90
2019-02-26T19:03:29.661Z,99.90
2019-02-26T19:06:00.117Z,99.90
2019-02-26T19:08:30.587Z,99.90
2019-02-26T19:11:02.645Z,99.90
2019-02-26T19:13:35.660Z,99.90
2019-02-26T19:16:16.001Z,99.90
2019-02-26T19:18:51.864Z,99.90
2019-02-26T19:21:23.583Z,99.90
2019-02-26T19:23:54.165Z,99.90
2019-02-26T19:26:24.607Z,99.90
2019-02-26T19:28:56.790Z,99.90
2019-02-26T19:31:27.008Z,99.90
2019-02-26T19:33:57.454Z,99.90
2019-02-26T19:36:27.920Z,99.90
2019-02-26T19:39:00.484Z,99.90
2019-02-26T19:41:30.382Z,99.90
2019-02-26T19:44:00.849Z,99.90
2019-02-26T19:46:31.236Z,99.90
2019-02-26T19:49:05.557Z,99.90
2019-02-26T19:51:34.795Z,99.90
2019-02-26T19:54:06.914Z,99.90
2019-02-26T19:56:37.478Z,99.90
2019-02-26T19:59:08.018Z,99.90
2019-02-26T20:01:38.439Z,99.90
2019-02-26T20:04:08.864Z,99.90
2019-02-26T20:06:39.391Z,99.90
2019-02-26T20:09:09.927Z,99.90
2019-02-26T20:11:40.320Z,99.90
2019-02-26T20:14:11.564Z,99.90
2019-02-26T20:16:44.282Z,99.90
2019-02-26T20:19:14.930Z,99.90
2019-02-26T20:21:45.791Z,99.90
2019-02-26T20:24:16.573Z,99.90
2019-02-26T20:26:49.964Z,99.90
2019-02-26T20:29:19.717Z,99.90
2019-02-26T20:34:45.968Z,99.90
2019-02-26T20:37:16.513Z,99.90
2019-02-26T20:39:46.860Z,99.90
2019-02-26T20:42:17.361Z,99.90
2019-02-26T20:44:47.830Z,99.90
2019-02-26T20:47:19.094Z,99.90
2019-02-26T20:49:49.484Z,99.90
2019-02-26T20:52:19.976Z,99.90
2019-02-26T20:54:50.515Z,99.90
2019-02-26T20:57:20.945Z,99.90
2019-02-26T20:59:52.960Z,99.90
2019-02-26T21:02:23.432Z,99.90
2019-02-26T21:04:53.868Z,99.90
2019-02-26T21:07:24.558Z,99.90
2019-02-26T21:10:03.487Z,99.90
2019-02-26T21:12:31.223Z,99.90
2019-02-26T21:15:05.700Z,99.90
2019-02-26T21:17:36.304Z,99.90
2019-02-26T21:20:09.562Z,99.90
2019-02-26T21:22:42.831Z,99.90
2019-02-26T21:25:14.929Z,99.90
2019-02-26T21:27:46.637Z,99.90
2019-02-26T21:30:18.638Z,99.90
2019-02-26T21:32:49.109Z,99.90
2019-02-26T21:35:20.665Z,99.90
2019-02-26T21:37:51.985Z,99.90
2019-02-26T21:40:23.951Z,99.90
2019-02-26T21:42:56.564Z,99.90
2019-02-26T21:45:29.230Z,99.90
2019-02-26T21:48:02.383Z,99.90
2019-02-26T21:50:35.853Z,99.90
2019-02-26T21:53:06.355Z,99.90
2019-02-26T21:55:44.233Z,99.90
2019-02-26T21:58:08.855Z,99.90
2019-02-26T22:00:39.819Z,99.90
2019-02-26T22:03:13.265Z,99.90
2019-02-26T22:05:43.865Z,99.90
2019-02-26T22:08:14.322Z,99.90
2019-02-26T22:10:44.777Z,99.90
2019-02-26T22:13:15.267Z,99.90
2019-02-26T22:15:45.609Z,99.90
2019-02-26T22:18:16.048Z,99.90
2019-02-26T22:20:47.712Z,99.90
2019-02-26T22:23:18.114Z,99.90
2019-02-26T22:25:49.826Z,99.90
2019-02-26T22:28:23.009Z,99.90
2019-02-26T22:30:55.725Z,99.90
2019-02-26T22:33:25.650Z,99.90
2019-02-26T22:35:56.994Z,99.90
2019-02-26T22:38:28.139Z,99.90
2019-02-26T22:40:59.884Z,99.90
2019-02-26T22:43:30.769Z,99.90
2019-02-26T22:46:01.777Z,99.90
2019-02-26T22:48:32.191Z,99.90
2019-02-26T22:51:02.593Z,99.90
2019-02-26T22:53:36.366Z,99.90
2019-02-26T22:56:05.060Z,99.90
2019-02-26T22:58:35.851Z,99.90
2019-02-26T23:01:12.666Z,99.90
2019-02-26T23:03:45.708Z,99.90
2019-02-26T23:06:15.217Z,99.90
2019-02-26T23:08:45.622Z,99.90
2019-02-26T23:11:16.185Z,99.90
2019-02-26T23:13:46.591Z,99.90
2019-02-26T23:16:18.534Z,99.90
2019-02-26T23:18:49.220Z,99.90
2019-02-26T23:21:20.072Z,99.90
2019-02-26T23:23:54.679Z,99.90
2019-02-26T23:26:22.677Z,99.90
2019-02-26T23:28:54.856Z,99.90
2019-02-26T23:31:25.322Z,99.90
2019-02-26T23:33:55.799Z,99.90
2019-02-26T23:36:28.569Z,99.90
2019-02-26T23:38:58.305Z,99.90
2019-02-26T23:41:30.773Z,99.90
2019-02-26T23:44:00.832Z,99.90
2019-02-26T23:46:31.482Z,99.90
2019-02-26T23:49:01.887Z,99.90
2019-02-26T23:51:32.291Z,99.90
2019-02-26T23:54:04.697Z,99.90
2019-02-26T23:56:34.755Z,99.90
2019-02-26T23:59:05.164Z,99.90
